createdAt,value
2019-03-15T00:01:42.308Z,98940.63
2019-03-15T00:04:11.716Z,98943.34
2019-03-15T00:06:41.031Z,98940.91
2019-03-15T00:09:10.472Z,98936.08
2019-03-15T00:11:39.855Z,98942.96
2019-03-15T00:14:09.231Z,98949.63
2019-03-15T00:16:38.569Z,98945.19
2019-03-15T00:19:07.956Z,98941.46
2019-03-15T00:21:37.356Z,98946.11
2019-03-15T00:24:06.732Z,98940.91
2019-03-15T00:26:36.176Z,98935.79
2019-03-15T00:29:05.531Z,98939.31
2019-03-15T00:31:34.949Z,98946.48
2019-03-15T00:34:04.376Z,98941.08
2019-03-15T00:36:33.699Z,98938.31
2019-03-15T00:39:03.142Z,98938.40
2019-03-15T00:41:32.541Z,98936.64
2019-03-15T00:44:01.988Z,98939.78
2019-03-15T00:46:31.426Z,98938.77
2019-03-15T00:49:00.794Z,98938.77
2019-03-15T00:51:30.121Z,98940.99
2019-03-15T00:53:59.510Z,98944.89
2019-03-15T00:56:28.940Z,98938.85
2019-03-15T00:58:58.338Z,98941.19
2019-03-15T01:01:27.715Z,98939.60
2019-03-15T01:03:57.113Z,98946.03
2019-03-15T01:06:26.498Z,98949.27
2019-03-15T01:08:55.924Z,98943.80
2019-03-15T01:11:25.307Z,98943.80
2019-03-15T01:13:54.688Z,98939.78
2019-03-15T01:16:24.017Z,98940.81
2019-03-15T01:18:53.452Z,98937.45
2019-03-15T01:21:22.847Z,98935.61
2019-03-15T01:23:52.228Z,98935.98
2019-03-15T01:26:21.672Z,98931.70
2019-03-15T01:28:51.007Z,98936.16
2019-03-15T01:31:20.363Z,98934.94
2019-03-15T01:33:50.081Z,98935.33
2019-03-15T01:36:19.658Z,98936.16
2019-03-15T01:38:49.035Z,98935.62
2019-03-15T01:41:18.375Z,98931.98
2019-03-15T01:43:47.766Z,98932.64
2019-03-15T01:46:17.174Z,98934.78
2019-03-15T01:48:46.518Z,98932.34
2019-03-15T01:51:15.894Z,98934.69
2019-03-15T01:53:45.263Z,98930.41
2019-03-15T01:56:14.625Z,98936.25
2019-03-15T01:58:44.262Z,98936.06
2019-03-15T02:01:13.730Z,98943.50
2019-03-15T02:03:43.187Z,98941.92
2019-03-15T02:06:12.560Z,98944.06
2019-03-15T02:08:41.939Z,98938.38
2019-03-15T02:11:11.325Z,98930.58
2019-03-15T02:13:40.672Z,98939.13
2019-03-15T02:16:10.086Z,98931.23
2019-03-15T02:18:39.427Z,98938.00
2019-03-15T02:21:08.754Z,98933.37
2019-03-15T02:23:38.140Z,98925.72
2019-03-15T02:26:07.863Z,98925.26
2019-03-15T02:28:37.201Z,98929.25
2019-03-15T02:31:06.651Z,98921.91
2019-03-15T02:33:35.975Z,98923.44
2019-03-15T02:36:05.374Z,98927.05
2019-03-15T02:38:34.763Z,98930.88
2019-03-15T02:41:05.035Z,98936.25
2019-03-15T02:43:34.647Z,98938.76
2019-03-15T02:46:04.091Z,98940.98
2019-03-15T02:48:33.425Z,98942.86
2019-03-15T02:51:02.769Z,98934.94
2019-03-15T02:53:32.196Z,98932.91
2019-03-15T02:56:01.666Z,98930.67
2019-03-15T02:58:31.097Z,98929.72
2019-03-15T03:01:00.421Z,98928.53
2019-03-15T03:03:29.931Z,98929.64
2019-03-15T03:05:59.239Z,98821.35
2019-03-15T03:08:28.656Z,98927.90
2019-03-15T03:10:58.031Z,98924.54
2019-03-15T03:13:27.392Z,98919.63
2019-03-15T03:15:56.787Z,98925.84
2019-03-15T03:18:26.135Z,98925.29
2019-03-15T03:20:55.524Z,98928.09
2019-03-15T03:23:24.907Z,98929.94
2019-03-15T03:25:54.389Z,98932.34
2019-03-15T03:28:23.727Z,98929.56
2019-03-15T03:30:53.047Z,98925.66
2019-03-15T03:33:22.409Z,98930.48
2019-03-15T03:35:51.797Z,98929.27
2019-03-15T03:38:21.212Z,98930.02
2019-03-15T03:40:50.552Z,98927.70
2019-03-15T03:43:19.970Z,98931.79
2019-03-15T03:45:49.364Z,98928.91
2019-03-15T03:48:18.823Z,98926.78
2019-03-15T03:50:48.204Z,98924.98
2019-03-15T03:53:17.708Z,98937.19
2019-03-15T03:55:47.029Z,98936.53
2019-03-15T03:58:16.383Z,98943.95
2019-03-15T04:00:45.825Z,98936.53
2019-03-15T04:03:15.494Z,98932.62
2019-03-15T04:05:45.108Z,98927.50
2019-03-15T04:08:14.736Z,98924.53
2019-03-15T04:10:44.049Z,98952.30
2019-03-15T04:13:13.414Z,98920.28
2019-03-15T04:15:42.837Z,98917.38
2019-03-15T04:18:12.412Z,98920.14
2019-03-15T04:20:42.475Z,98923.78
2019-03-15T04:23:11.976Z,98923.31
2019-03-15T04:25:41.282Z,98925.63
2019-03-15T04:28:10.630Z,98926.39
2019-03-15T04:30:40.072Z,98924.88
2019-03-15T04:33:09.456Z,98929.38
2019-03-15T04:35:38.914Z,98925.58
2019-03-15T04:38:08.254Z,98928.80
2019-03-15T04:40:37.661Z,98930.86
2019-03-15T04:43:07.029Z,98929.48
2019-03-15T04:45:36.462Z,98920.83
2019-03-15T04:48:05.763Z,98924.91
2019-03-15T04:50:35.125Z,98922.67
2019-03-15T04:53:04.620Z,98929.64
2019-03-15T04:55:34.010Z,98937.83
2019-03-15T04:58:03.505Z,98936.53
2019-03-15T05:00:32.787Z,98933.18
2019-03-15T05:03:02.196Z,98938.20
2019-03-15T05:05:31.667Z,98937.91
2019-03-15T05:08:01.116Z,98932.99
2019-03-15T05:10:30.495Z,98930.84
2019-03-15T05:12:59.895Z,98930.20
2019-03-15T05:15:29.368Z,98933.28
2019-03-15T05:17:58.872Z,98930.02
2019-03-15T05:20:28.460Z,98929.55
2019-03-15T05:22:57.827Z,98929.62
2019-03-15T05:25:29.675Z,98930.92
2019-03-15T05:27:58.513Z,98930.21
2019-03-15T05:30:27.837Z,98926.20
2019-03-15T05:32:57.261Z,98933.84
2019-03-15T05:35:26.653Z,98941.10
2019-03-15T05:37:56.030Z,98826.72
2019-03-15T05:40:25.344Z,98928.09
2019-03-15T05:42:54.815Z,98928.53
2019-03-15T05:45:24.234Z,98930.66
2019-03-15T05:47:53.640Z,98924.17
2019-03-15T05:50:23.004Z,98930.28
2019-03-15T05:52:52.390Z,98921.80
2019-03-15T05:55:21.784Z,98923.31
2019-03-15T05:57:51.163Z,98919.13
2019-03-15T06:00:20.650Z,98916.23
2019-03-15T06:02:49.998Z,98916.33
2019-03-15T06:05:19.371Z,98824.77
2019-03-15T06:07:48.942Z,98924.14
2019-03-15T06:10:18.353Z,98923.78
2019-03-15T06:12:47.799Z,98923.87
2019-03-15T06:15:17.172Z,98928.06
2019-03-15T06:17:46.602Z,98928.04
2019-03-15T06:20:15.995Z,98923.69
2019-03-15T06:22:45.386Z,98916.67
2019-03-15T06:25:14.739Z,98914.44
2019-03-15T06:27:44.147Z,98917.70
2019-03-15T06:30:13.554Z,98920.04
2019-03-15T06:32:42.929Z,98918.08
2019-03-15T06:35:12.552Z,98919.28
2019-03-15T06:37:42.028Z,98915.91
2019-03-15T06:40:13.643Z,98917.75
2019-03-15T06:42:43.053Z,98912.27
2019-03-15T06:45:12.679Z,98917.56
2019-03-15T06:47:42.039Z,98909.82
2019-03-15T06:50:11.827Z,98910.09
2019-03-15T06:52:41.244Z,98909.82
2019-03-15T06:55:10.806Z,98915.38
2019-03-15T06:57:40.236Z,98915.43
2019-03-15T07:00:10.048Z,98912.39
2019-03-15T07:02:39.405Z,98917.54
2019-03-15T07:05:11.873Z,98919.65
2019-03-15T07:07:40.263Z,98809.33
2019-03-15T07:10:09.815Z,98913.11
2019-03-15T07:12:40.395Z,98915.25
2019-03-15T07:15:10.436Z,98917.51
2019-03-15T07:17:39.831Z,98915.86
2019-03-15T07:20:09.879Z,98916.46
2019-03-15T07:22:39.294Z,98918.83
2019-03-15T07:25:09.026Z,98915.90
2019-03-15T07:27:38.372Z,98915.49
2019-03-15T07:30:09.043Z,98912.22
2019-03-15T07:32:38.608Z,98905.84
2019-03-15T07:35:07.928Z,98907.33
2019-03-15T07:37:37.334Z,98912.68
2019-03-15T07:40:07.272Z,98924.00
2019-03-15T07:42:36.649Z,98922.33
2019-03-15T07:45:06.326Z,98922.09
2019-03-15T07:47:35.780Z,98929.64
2019-03-15T07:50:05.642Z,98926.66
2019-03-15T07:52:35.124Z,98923.98
2019-03-15T07:55:04.686Z,98927.45
2019-03-15T07:57:34.072Z,98917.56
2019-03-15T08:00:03.547Z,98915.29
2019-03-15T08:02:33.209Z,98916.02
2019-03-15T08:05:02.534Z,98911.10
2019-03-15T08:07:36.553Z,98911.14
2019-03-15T08:10:03.432Z,98907.11
2019-03-15T08:12:33.280Z,98907.41
2019-03-15T08:15:02.660Z,98907.70
2019-03-15T08:17:32.592Z,98905.36
2019-03-15T08:20:02.230Z,98906.36
2019-03-15T08:22:31.762Z,98907.36
2019-03-15T08:25:01.158Z,98908.30
2019-03-15T08:27:30.516Z,98905.22
2019-03-15T08:30:00.405Z,98904.05
2019-03-15T08:32:29.834Z,98906.27
2019-03-15T08:34:59.163Z,98906.09
2019-03-15T08:37:28.524Z,98904.17
2019-03-15T08:39:57.890Z,98907.58
2019-03-15T08:42:27.250Z,98910.18
2019-03-15T08:44:56.667Z,98909.07
2019-03-15T08:47:26.023Z,98908.38
2019-03-15T08:49:55.417Z,98906.09
2019-03-15T08:52:24.753Z,98911.33
2019-03-15T08:55:04.710Z,98908.87
2019-03-15T08:57:25.422Z,98925.48
2019-03-15T08:59:57.761Z,98910.94
2019-03-15T09:02:26.543Z,98910.92
2019-03-15T09:04:55.923Z,98909.52
2019-03-15T09:07:25.275Z,98910.39
2019-03-15T09:09:54.682Z,98905.73
2019-03-15T09:12:25.187Z,98906.22
2019-03-15T09:14:54.684Z,98904.80
2019-03-15T09:17:24.118Z,98902.28
2019-03-15T09:19:53.589Z,98902.89
2019-03-15T09:22:22.942Z,98906.56
2019-03-15T09:24:52.346Z,98905.11
2019-03-15T09:27:21.875Z,98904.56
2019-03-15T09:29:51.266Z,98907.89
2019-03-15T09:32:20.639Z,98906.59
2019-03-15T09:34:50.017Z,98905.27
2019-03-15T09:37:19.492Z,98905.00
2019-03-15T09:39:49.045Z,98907.62
2019-03-15T09:42:18.490Z,98907.03
2019-03-15T09:44:47.886Z,98905.84
2019-03-15T09:47:17.304Z,98912.27
2019-03-15T09:49:46.676Z,98921.38
2019-03-15T09:52:16.129Z,98912.89
2019-03-15T09:54:45.600Z,98917.71
2019-03-15T09:57:14.983Z,98915.45
2019-03-15T09:59:44.417Z,98912.85
2019-03-15T10:02:13.765Z,98919.17
2019-03-15T10:04:43.302Z,98917.86
2019-03-15T10:07:12.832Z,98917.50
2019-03-15T10:09:46.226Z,98909.42
2019-03-15T10:12:13.278Z,98909.81
2019-03-15T10:14:42.712Z,98914.33
2019-03-15T10:17:12.094Z,98914.31
2019-03-15T10:19:41.583Z,98913.48
2019-03-15T10:22:10.957Z,98909.20
2019-03-15T10:24:40.300Z,98907.28
2019-03-15T10:27:09.653Z,98904.31
2019-03-15T10:29:39.069Z,98907.97
2019-03-15T10:32:08.443Z,98908.41
2019-03-15T10:34:37.809Z,98914.09
2019-03-15T10:37:07.224Z,98903.53
2019-03-15T10:39:36.666Z,98905.13
2019-03-15T10:42:06.108Z,98902.87
2019-03-15T10:44:35.513Z,98901.58
2019-03-15T10:47:04.929Z,98906.14
2019-03-15T10:49:34.546Z,98905.67
2019-03-15T10:52:04.006Z,98901.81
2019-03-15T10:54:33.455Z,98903.90
2019-03-15T10:57:02.921Z,98892.17
2019-03-15T10:59:32.360Z,98892.90
2019-03-15T11:02:01.966Z,98895.13
2019-03-15T11:04:31.359Z,98899.91
2019-03-15T11:07:00.794Z,98894.56
2019-03-15T11:09:30.127Z,98899.21
2019-03-15T11:11:59.582Z,98901.58
2019-03-15T11:14:28.979Z,98893.13
2019-03-15T11:16:58.369Z,98899.45
2019-03-15T11:19:27.869Z,98899.53
2019-03-15T11:21:57.225Z,98897.03
2019-03-15T11:24:26.588Z,98899.72
2019-03-15T11:26:56.056Z,98902.45
2019-03-15T11:29:25.436Z,98904.16
2019-03-15T11:31:54.781Z,98897.77
2019-03-15T11:34:24.282Z,98896.09
2019-03-15T11:36:58.566Z,98896.93
2019-03-15T11:39:24.694Z,98897.16
2019-03-15T11:41:54.083Z,98896.45
2019-03-15T11:44:23.448Z,98895.69
2019-03-15T11:46:53.074Z,98896.48
2019-03-15T11:49:22.576Z,98888.98
2019-03-15T11:51:51.995Z,98888.25
2019-03-15T11:54:21.360Z,98890.67
2019-03-15T11:56:51.057Z,98889.63
2019-03-15T11:59:20.339Z,98897.88
2019-03-15T12:02:03.170Z,98889.94
2019-03-15T12:04:20.736Z,98894.16
2019-03-15T12:06:50.220Z,98891.36
2019-03-15T12:09:19.733Z,98895.33
2019-03-15T12:11:49.079Z,98898.89
2019-03-15T12:14:18.733Z,98897.09
2019-03-15T12:16:48.422Z,98895.33
2019-03-15T12:19:17.923Z,98897.05
2019-03-15T12:21:47.529Z,98899.44
2019-03-15T12:24:17.057Z,98898.30
2019-03-15T12:26:46.595Z,98896.34
2019-03-15T12:29:15.966Z,98896.00
2019-03-15T12:31:45.524Z,98897.92
2019-03-15T12:34:14.945Z,98896.53
2019-03-15T12:36:44.357Z,98890.86
2019-03-15T12:39:13.714Z,98893.67
2019-03-15T12:41:43.092Z,98885.41
2019-03-15T12:44:12.599Z,98881.71
2019-03-15T12:46:41.926Z,98887.55
2019-03-15T12:49:11.362Z,98883.02
2019-03-15T12:51:40.767Z,98889.09
2019-03-15T12:54:10.236Z,98884.77
2019-03-15T12:56:52.945Z,98886.69
2019-03-15T12:59:10.952Z,98886.21
2019-03-15T13:01:40.417Z,98887.53
2019-03-15T13:04:09.850Z,98892.17
2019-03-15T13:06:39.393Z,98897.55
2019-03-15T13:09:08.765Z,98893.15
2019-03-15T13:11:38.222Z,98890.77
2019-03-15T13:14:07.807Z,98889.23
2019-03-15T13:16:37.151Z,98892.44
2019-03-15T13:19:06.514Z,98892.81
2019-03-15T13:21:35.902Z,98897.18
2019-03-15T13:24:05.281Z,98895.31
2019-03-15T13:26:34.679Z,98894.22
2019-03-15T13:29:04.234Z,98894.48
2019-03-15T13:31:33.759Z,98902.98
2019-03-15T13:34:03.150Z,98895.31
2019-03-15T13:36:32.684Z,98893.92
2019-03-15T13:39:02.113Z,98901.95
2019-03-15T13:41:31.520Z,98905.94
2019-03-15T13:44:00.881Z,98904.92
2019-03-15T13:46:30.245Z,98899.50
2019-03-15T13:48:59.600Z,98901.69
2019-03-15T13:51:29.152Z,98904.45
2019-03-15T13:53:58.582Z,98907.33
2019-03-15T13:56:27.970Z,98909.78
2019-03-15T13:58:57.781Z,98906.75
2019-03-15T14:01:27.199Z,98910.30
2019-03-15T14:03:56.662Z,98904.60
2019-03-15T14:06:26.188Z,98915.11
2019-03-15T14:08:55.645Z,98911.59
2019-03-15T14:11:25.024Z,98915.14
2019-03-15T14:13:54.571Z,98912.63
2019-03-15T14:16:23.958Z,98864.64
2019-03-15T14:18:53.400Z,98909.06
2019-03-15T14:21:22.756Z,98905.00
2019-03-15T14:23:52.177Z,98901.74
2019-03-15T14:26:21.651Z,98907.41
2019-03-15T14:28:51.108Z,98909.16
2019-03-15T14:31:21.743Z,98908.49
2019-03-15T14:33:51.319Z,98907.22
2019-03-15T14:36:20.619Z,98910.30
2019-03-15T14:38:50.099Z,98910.30
2019-03-15T14:41:19.575Z,98908.12
2019-03-15T14:43:49.202Z,98909.43
2019-03-15T14:46:18.617Z,98905.18
2019-03-15T14:48:48.018Z,98913.74
2019-03-15T14:51:17.386Z,98906.48
2019-03-15T14:53:46.858Z,98912.20
2019-03-15T14:56:16.211Z,98911.67
2019-03-15T14:58:45.567Z,98907.99
2019-03-15T15:01:14.919Z,98909.27
2019-03-15T15:03:44.346Z,98912.97
2019-03-15T15:06:13.874Z,98906.95
2019-03-15T15:08:43.228Z,98912.98
2019-03-15T15:11:12.753Z,98916.16
2019-03-15T15:13:42.353Z,98913.95
2019-03-15T15:16:11.705Z,98911.10
2019-03-15T15:18:41.110Z,98909.00
2019-03-15T15:21:10.529Z,98916.83
2019-03-15T15:23:39.968Z,98918.73
2019-03-15T15:26:09.378Z,98921.86
2019-03-15T15:28:39.617Z,98926.77
2019-03-15T15:31:09.015Z,98927.66
2019-03-15T15:33:38.402Z,98926.19
2019-03-15T15:36:07.793Z,98927.95
2019-03-15T15:38:37.251Z,98931.30
2019-03-15T15:41:06.627Z,98933.59
2019-03-15T15:43:36.118Z,98934.19
2019-03-15T15:46:05.540Z,98939.97
2019-03-15T15:48:35.095Z,98939.08
2019-03-15T15:51:04.454Z,98940.39
2019-03-15T15:53:33.890Z,98942.26
2019-03-15T15:56:03.434Z,98942.26
2019-03-15T15:58:32.857Z,98946.36
2019-03-15T16:01:02.266Z,98946.54
2019-03-15T16:03:31.674Z,98950.82
2019-03-15T16:06:01.316Z,98947.28
2019-03-15T16:08:30.946Z,98943.09
2019-03-15T16:11:00.379Z,98947.00
2019-03-15T16:13:29.720Z,98948.97
2019-03-15T16:15:59.146Z,98944.54
2019-03-15T16:18:28.593Z,98946.35
2019-03-15T16:20:57.927Z,98947.23
2019-03-15T16:23:30.180Z,98948.81
2019-03-15T16:25:58.662Z,98950.73
2019-03-15T16:28:31.839Z,98945.52
2019-03-15T16:30:59.267Z,98947.50
2019-03-15T16:33:28.637Z,98950.44
2019-03-15T16:35:58.142Z,98950.22
2019-03-15T16:38:27.591Z,98955.77
2019-03-15T16:40:57.003Z,98954.28
2019-03-15T16:43:26.436Z,98950.47
2019-03-15T16:45:55.850Z,98949.76
2019-03-15T16:48:25.338Z,98950.09
2019-03-15T16:50:54.730Z,98954.68
2019-03-15T16:53:24.207Z,98953.66
2019-03-15T16:55:53.793Z,98962.16
2019-03-15T16:58:23.174Z,98963.73
2019-03-15T17:00:52.400Z,98966.64
2019-03-15T17:03:21.875Z,98971.38
2019-03-15T17:05:51.446Z,98967.45
2019-03-15T17:08:20.860Z,98970.23
2019-03-15T17:10:50.322Z,98968.94
2019-03-15T17:13:19.689Z,98968.94
2019-03-15T17:15:49.063Z,98964.31
2019-03-15T17:18:18.425Z,98971.56
2019-03-15T17:20:47.819Z,98970.17
2019-03-15T17:23:17.416Z,98972.80
2019-03-15T17:25:46.825Z,98972.51
2019-03-15T17:28:16.318Z,98975.33
2019-03-15T17:30:45.861Z,98971.05
2019-03-15T17:33:15.460Z,98972.63
2019-03-15T17:35:44.980Z,98972.36
2019-03-15T17:38:14.356Z,98979.63
2019-03-15T17:40:43.819Z,98972.16
2019-03-15T17:43:13.266Z,98978.50
2019-03-15T17:45:42.692Z,98977.73
2019-03-15T17:48:12.108Z,98981.00
2019-03-15T17:50:41.609Z,98977.55
2019-03-15T17:53:11.316Z,98970.49
2019-03-15T17:55:40.925Z,98969.63
2019-03-15T17:58:10.330Z,98964.59
2019-03-15T18:00:42.129Z,98970.08
2019-03-15T18:03:20.490Z,98972.47
2019-03-15T18:05:42.868Z,98968.09
2019-03-15T18:08:12.325Z,98967.63
2019-03-15T18:10:41.940Z,98964.48
2019-03-15T18:13:11.401Z,98969.97
2019-03-15T18:15:40.893Z,98970.52
2019-03-15T18:18:10.437Z,98976.48
2019-03-15T18:20:39.922Z,98990.82
2019-03-15T18:23:09.268Z,98983.86
2019-03-15T18:25:38.742Z,98980.77
2019-03-15T18:28:08.241Z,98984.58
2019-03-15T18:30:37.593Z,98978.66
2019-03-15T18:33:07.296Z,98980.05
2019-03-15T18:35:36.670Z,98982.20
2019-03-15T18:38:06.193Z,98988.14
2019-03-15T18:40:35.834Z,98989.73
2019-03-15T18:43:05.239Z,98993.55
2019-03-15T18:45:34.605Z,98983.05
2019-03-15T18:48:04.007Z,98991.32
2019-03-15T18:50:33.395Z,98992.52
2019-03-15T18:53:02.805Z,98992.71
2019-03-15T18:55:32.445Z,98989.44
2019-03-15T18:58:01.807Z,99001.36
2019-03-15T19:00:31.157Z,99002.37
2019-03-15T19:03:00.833Z,98994.77
2019-03-15T19:05:30.234Z,99005.16
2019-03-15T19:07:59.707Z,99014.09
2019-03-15T19:10:29.117Z,99013.17
2019-03-15T19:12:58.504Z,99014.76
2019-03-15T19:15:27.985Z,99011.78
2019-03-15T19:17:57.403Z,99015.77
2019-03-15T19:20:26.913Z,99020.52
2019-03-15T19:22:56.260Z,99015.22
2019-03-15T19:25:25.625Z,99018.75
2019-03-15T19:27:55.134Z,99017.83
2019-03-15T19:30:24.493Z,99014.38
2019-03-15T19:32:53.979Z,99015.69
2019-03-15T19:35:23.429Z,99010.11
2019-03-15T19:37:52.819Z,99016.70
2019-03-15T19:40:22.209Z,99027.20
2019-03-15T19:42:51.712Z,99028.05
2019-03-15T19:45:21.169Z,99022.84
2019-03-15T19:47:50.618Z,99017.72
2019-03-15T19:50:20.040Z,99016.34
2019-03-15T19:52:49.462Z,99020.53
2019-03-15T19:55:18.839Z,99027.03
2019-03-15T19:57:48.403Z,99028.80
2019-03-15T20:00:17.911Z,99032.23
2019-03-15T20:02:48.642Z,99039.84
2019-03-15T20:05:18.129Z,99035.94
2019-03-15T20:07:47.677Z,99040.05
2019-03-15T20:10:17.543Z,99047.56
2019-03-15T20:12:46.910Z,99049.70
2019-03-15T20:15:16.445Z,99048.23
2019-03-15T20:17:45.886Z,99038.28
2019-03-15T20:20:15.463Z,99049.16
2019-03-15T20:22:44.978Z,99051.38
2019-03-15T20:25:17.973Z,99057.69
2019-03-15T20:27:47.435Z,99052.39
2019-03-15T20:30:21.486Z,99052.02
2019-03-15T20:32:48.362Z,99051.38
2019-03-15T20:35:17.689Z,99055.75
2019-03-15T20:37:48.519Z,99056.04
2019-03-15T20:40:17.876Z,99059.02
2019-03-15T20:42:47.193Z,99056.77
2019-03-15T20:45:16.863Z,99055.84
2019-03-15T20:47:46.264Z,99065.32
2019-03-15T20:50:15.999Z,99064.56
2019-03-15T20:52:45.470Z,99079.92
2019-03-15T20:55:15.285Z,99071.19
2019-03-15T20:57:44.853Z,99069.89
2019-03-15T21:00:15.157Z,99077.58
2019-03-15T21:02:44.535Z,99076.28
2019-03-15T21:05:13.938Z,99077.70
2019-03-15T21:07:44.173Z,99084.20
2019-03-15T21:10:13.736Z,99084.46
2019-03-15T21:12:45.246Z,99089.58
2019-03-15T21:15:14.638Z,99088.83
2019-03-15T21:17:44.044Z,99088.28
2019-03-15T21:20:14.041Z,99088.20
2019-03-15T21:22:43.834Z,99086.05
2019-03-15T21:25:13.283Z,99088.56
2019-03-15T21:27:53.016Z,99092.93
2019-03-15T21:30:15.107Z,99087.72
2019-03-15T21:32:44.590Z,99088.73
2019-03-15T21:35:14.103Z,99096.75
2019-03-15T21:37:43.502Z,99091.17
2019-03-15T21:40:12.876Z,99094.23
2019-03-15T21:42:42.288Z,99084.45
2019-03-15T21:45:11.864Z,99089.11
2019-03-15T21:47:41.295Z,99091.16
2019-03-15T21:50:12.003Z,99097.09
2019-03-15T21:52:41.402Z,99098.77
2019-03-15T21:55:10.804Z,99091.62
2019-03-15T21:57:40.251Z,99092.72
2019-03-15T22:00:11.079Z,99101.58
2019-03-15T22:02:40.470Z,99104.17
2019-03-15T22:05:10.041Z,99099.22
2019-03-15T22:07:39.528Z,99098.38
2019-03-15T22:10:09.804Z,99100.44
2019-03-15T22:12:39.303Z,99102.03
2019-03-15T22:15:08.803Z,99108.08
2019-03-15T22:17:38.402Z,99110.01
2019-03-15T22:20:09.260Z,99101.35
2019-03-15T22:22:38.600Z,99100.05
2019-03-15T22:25:08.005Z,99104.25
2019-03-15T22:27:37.509Z,99106.65
2019-03-15T22:30:06.893Z,99107.95
2019-03-15T22:32:36.266Z,99107.60
2019-03-15T22:35:05.944Z,99104.16
2019-03-15T22:37:35.311Z,99106.06
2019-03-15T22:40:04.852Z,99102.46
2019-03-15T22:42:34.239Z,99100.50
2019-03-15T22:45:03.598Z,99103.86
2019-03-15T22:47:33.043Z,99106.45
2019-03-15T22:50:02.415Z,99104.95
2019-03-15T22:52:31.769Z,99108.59
2019-03-15T22:55:01.153Z,99103.40
2019-03-15T22:57:30.513Z,99092.07
2019-03-15T22:59:59.899Z,99090.39
2019-03-15T23:02:29.358Z,99086.20
2019-03-15T23:04:58.707Z,99094.67
2019-03-15T23:07:28.094Z,99091.41
2019-03-15T23:09:57.454Z,99089.48
2019-03-15T23:12:26.848Z,99092.08
2019-03-15T23:14:56.329Z,99097.55
2019-03-15T23:17:25.738Z,99095.51
2019-03-15T23:19:55.078Z,99101.03
2019-03-15T23:22:24.515Z,99096.88
2019-03-15T23:24:53.920Z,99103.19
2019-03-15T23:27:23.381Z,99114.72
2019-03-15T23:29:52.808Z,99113.50
2019-03-15T23:32:22.220Z,99117.95
2019-03-15T23:34:51.686Z,99118.45
2019-03-15T23:37:21.256Z,99123.99
2019-03-15T23:39:50.716Z,99126.98
2019-03-15T23:42:20.047Z,99121.69
2019-03-15T23:44:49.468Z,99128.45
2019-03-15T23:47:18.852Z,99127.30
2019-03-15T23:49:48.253Z,99131.36
2019-03-15T23:52:17.616Z,99127.30
2019-03-15T23:54:46.963Z,99129.44
2019-03-15T23:57:16.335Z,99130.57
2019-03-15T23:59:45.680Z,99129.08
